EDMA

Augsburg Airport

Augsburg, Germany
TAF EDMA 261100Z 2612/2621 27012G25KT 9999 SCT045 BECMG 2616/2618 24005KT
Issued Valid From Valid To
Apr-26 @ 11:00 UTC
(3 hours ago)
Apr-26 @ 12:00 UTC
(2 hours ago)
Apr-26 @ 21:00 UTC
(in 7 hours)
Apr-26 @ 12:00 to Apr-26 @ 16:00
TAF EDMA 261100Z 2612/2621 27012G25KT 9999 SCT045
Wind Visibility Clouds
270° at 12 knots
 Gusting to 25 knots
10,000+ meters
  • Scattered at 4,500' AGL
Becoming Apr-26 @ 16:00 to Apr-26 @ 21:00
BECMG 2616/2618 24005KT
Wind Visibility Clouds
240° at 5 knots 10,000+ meters
  • Scattered at 4,500' AGL
TAF EDMA 261100Z 2612/2621 27012G25KT 9999 SCT045 BECMG 2616/2618 24005KT
Issued Apr-26 @ 11:00 UTC
(3 hours ago)
Valid From Apr-26 @ 12:00 UTC
(2 hours ago)
Valid To Apr-26 @ 21:00 UTC
(in 7 hours)
Apr-26 @ 12:00 - Apr-26 @ 16:00
Wind Visibility
270° at 12 knots
 Gusting to 25 knots
10,000+ meters
Clouds
  • Scattered at 4,500' AGL
Becoming Apr-26 @ 16:00 - Apr-26 @ 21:00
Wind Visibility
240° at 5 knots 10,000+ meters
Clouds
  • Scattered at 4,500' AGL